sensor_id;sensor_type;location;lat;lon;timestamp;temperature;humidity
55777;DHT22;54079;44.540;18.784;2023-03-14T00:01:57;12.40;57.90
55777;DHT22;54079;44.540;18.784;2023-03-14T00:04:23;12.50;56.70
55777;DHT22;54079;44.540;18.784;2023-03-14T00:06:49;12.60;56.70
55777;DHT22;54079;44.540;18.784;2023-03-14T00:09:16;12.60;56.60
55777;DHT22;54079;44.540;18.784;2023-03-14T00:11:42;12.70;55.70
55777;DHT22;54079;44.540;18.784;2023-03-14T00:14:09;12.70;55.80
55777;DHT22;54079;44.540;18.784;2023-03-14T00:16:35;12.80;55.30
55777;DHT22;54079;44.540;18.784;2023-03-14T00:19:01;12.80;55.40
55777;DHT22;54079;44.540;18.784;2023-03-14T00:21:27;12.80;56.00
55777;DHT22;54079;44.540;18.784;2023-03-14T00:23:53;12.80;55.20
55777;DHT22;54079;44.540;18.784;2023-03-14T00:26:20;12.90;55.40
55777;DHT22;54079;44.540;18.784;2023-03-14T00:28:50;13.00;54.50
55777;DHT22;54079;44.540;18.784;2023-03-14T00:31:16;12.90;55.00
55777;DHT22;54079;44.540;18.784;2023-03-14T00:33:43;12.90;54.40
55777;DHT22;54079;44.540;18.784;2023-03-14T00:36:14;12.80;56.70
55777;DHT22;54079;44.540;18.784;2023-03-14T00:38:42;12.70;55.20
55777;DHT22;54079;44.540;18.784;2023-03-14T00:41:11;12.60;55.90
55777;DHT22;54079;44.540;18.784;2023-03-14T00:43:38;12.50;57.30
55777;DHT22;54079;44.540;18.784;2023-03-14T00:46:05;12.50;55.40
55777;DHT22;54079;44.540;18.784;2023-03-14T00:48:31;12.50;54.90
55777;DHT22;54079;44.540;18.784;2023-03-14T00:50:57;12.70;54.60
55777;DHT22;54079;44.540;18.784;2023-03-14T00:53:23;12.80;54.40
55777;DHT22;54079;44.540;18.784;2023-03-14T00:55:50;12.90;54.00
55777;DHT22;54079;44.540;18.784;2023-03-14T00:58:17;13.00;54.50
55777;DHT22;54079;44.540;18.784;2023-03-14T01:00:44;12.80;56.10
55777;DHT22;54079;44.540;18.784;2023-03-14T01:03:12;12.80;54.70
55777;DHT22;54079;44.540;18.784;2023-03-14T01:05:39;12.80;54.10
55777;DHT22;54079;44.540;18.784;2023-03-14T01:08:07;12.80;54.60
55777;DHT22;54079;44.540;18.784;2023-03-14T01:10:34;12.70;56.30
55777;DHT22;54079;44.540;18.784;2023-03-14T01:13:00;12.70;55.30
55777;DHT22;54079;44.540;18.784;2023-03-14T01:15:26;12.70;55.10
55777;DHT22;54079;44.540;18.784;2023-03-14T01:17:52;12.80;54.80
55777;DHT22;54079;44.540;18.784;2023-03-14T01:20:18;12.80;56.20
55777;DHT22;54079;44.540;18.784;2023-03-14T01:22:44;12.70;56.20
55777;DHT22;54079;44.540;18.784;2023-03-14T01:25:14;12.70;54.00
55777;DHT22;54079;44.540;18.784;2023-03-14T01:27:40;12.80;56.00
55777;DHT22;54079;44.540;18.784;2023-03-14T01:30:06;12.80;55.50
55777;DHT22;54079;44.540;18.784;2023-03-14T01:32:34;12.90;53.90
55777;DHT22;54079;44.540;18.784;2023-03-14T01:34:59;12.90;56.40
55777;DHT22;54079;44.540;18.784;2023-03-14T01:37:25;12.80;55.90
55777;DHT22;54079;44.540;18.784;2023-03-14T01:39:51;12.80;55.30
55777;DHT22;54079;44.540;18.784;2023-03-14T01:42:17;12.80;56.40
55777;DHT22;54079;44.540;18.784;2023-03-14T01:44:55;12.90;53.30
55777;DHT22;54079;44.540;18.784;2023-03-14T01:47:21;13.10;53.70
55777;DHT22;54079;44.540;18.784;2023-03-14T01:50:07;13.10;53.60
55777;DHT22;54079;44.540;18.784;2023-03-14T01:52:43;13.00;55.60
55777;DHT22;54079;44.540;18.784;2023-03-14T01:55:17;12.90;55.70
55777;DHT22;54079;44.540;18.784;2023-03-14T01:57:50;12.80;55.40
55777;DHT22;54079;44.540;18.784;2023-03-14T02:00:20;12.80;55.50
55777;DHT22;54079;44.540;18.784;2023-03-14T02:02:49;12.90;55.70
55777;DHT22;54079;44.540;18.784;2023-03-14T02:05:22;12.90;53.10
55777;DHT22;54079;44.540;18.784;2023-03-14T02:07:55;13.00;54.00
55777;DHT22;54079;44.540;18.784;2023-03-14T02:10:25;12.90;55.20
55777;DHT22;54079;44.540;18.784;2023-03-14T02:12:55;12.80;54.30
55777;DHT22;54079;44.540;18.784;2023-03-14T02:15:21;12.70;53.80
55777;DHT22;54079;44.540;18.784;2023-03-14T02:17:47;12.80;53.00
55777;DHT22;54079;44.540;18.784;2023-03-14T02:23:24;12.40;56.30
55777;DHT22;54079;44.540;18.784;2023-03-14T02:26:03;12.30;55.00
55777;DHT22;54079;44.540;18.784;2023-03-14T02:28:30;12.10;57.50
55777;DHT22;54079;44.540;18.784;2023-03-14T02:30:56;12.00;57.50
55777;DHT22;54079;44.540;18.784;2023-03-14T02:33:23;11.90;56.30
55777;DHT22;54079;44.540;18.784;2023-03-14T02:35:59;12.00;54.90
55777;DHT22;54079;44.540;18.784;2023-03-14T02:39:19;12.10;55.10
55777;DHT22;54079;44.540;18.784;2023-03-14T02:41:24;12.20;54.30
55777;DHT22;54079;44.540;18.784;2023-03-14T02:43:50;12.40;54.00
55777;DHT22;54079;44.540;18.784;2023-03-14T02:46:20;12.60;53.10
55777;DHT22;54079;44.540;18.784;2023-03-14T02:51:21;12.80;53.50
55777;DHT22;54079;44.540;18.784;2023-03-14T02:53:47;12.90;53.50
55777;DHT22;54079;44.540;18.784;2023-03-14T02:56:13;12.80;53.50
55777;DHT22;54079;44.540;18.784;2023-03-14T02:58:39;12.80;53.30
55777;DHT22;54079;44.540;18.784;2023-03-14T03:01:05;12.80;54.10
55777;DHT22;54079;44.540;18.784;2023-03-14T03:03:31;12.70;53.00
55777;DHT22;54079;44.540;18.784;2023-03-14T03:05:57;12.80;53.60
55777;DHT22;54079;44.540;18.784;2023-03-14T03:08:26;12.90;53.30
55777;DHT22;54079;44.540;18.784;2023-03-14T03:10:52;13.00;53.60
55777;DHT22;54079;44.540;18.784;2023-03-14T03:13:19;13.00;52.80
55777;DHT22;54079;44.540;18.784;2023-03-14T03:15:45;13.00;53.30
55777;DHT22;54079;44.540;18.784;2023-03-14T03:18:11;13.10;53.30
55777;DHT22;54079;44.540;18.784;2023-03-14T03:20:37;13.10;53.00
55777;DHT22;54079;44.540;18.784;2023-03-14T03:23:03;13.20;52.70
55777;DHT22;54079;44.540;18.784;2023-03-14T03:25:30;13.30;52.10
55777;DHT22;54079;44.540;18.784;2023-03-14T03:27:56;13.40;53.20
55777;DHT22;54079;44.540;18.784;2023-03-14T03:30:22;13.40;53.20
55777;DHT22;54079;44.540;18.784;2023-03-14T03:32:48;13.50;52.30
55777;DHT22;54079;44.540;18.784;2023-03-14T03:35:15;13.50;52.80
55777;DHT22;54079;44.540;18.784;2023-03-14T03:37:40;13.60;52.30
55777;DHT22;54079;44.540;18.784;2023-03-14T03:40:08;13.70;52.90
55777;DHT22;54079;44.540;18.784;2023-03-14T03:42:35;13.70;52.40
55777;DHT22;54079;44.540;18.784;2023-03-14T03:45:01;13.70;53.20
55777;DHT22;54079;44.540;18.784;2023-03-14T03:47:27;13.70;53.20
55777;DHT22;54079;44.540;18.784;2023-03-14T03:49:53;13.60;52.80
55777;DHT22;54079;44.540;18.784;2023-03-14T03:52:19;13.70;52.60
55777;DHT22;54079;44.540;18.784;2023-03-14T03:54:46;13.70;53.50
55777;DHT22;54079;44.540;18.784;2023-03-14T03:57:12;13.70;52.50
55777;DHT22;54079;44.540;18.784;2023-03-14T03:59:38;13.70;52.60
55777;DHT22;54079;44.540;18.784;2023-03-14T04:02:05;13.70;52.10
55777;DHT22;54079;44.540;18.784;2023-03-14T04:04:31;13.80;52.70
55777;DHT22;54079;44.540;18.784;2023-03-14T04:06:57;13.80;53.70
55777;DHT22;54079;44.540;18.784;2023-03-14T04:09:23;13.70;53.60
55777;DHT22;54079;44.540;18.784;2023-03-14T04:11:49;13.60;53.20
55777;DHT22;54079;44.540;18.784;2023-03-14T04:14:15;13.60;53.60
55777;DHT22;54079;44.540;18.784;2023-03-14T04:16:41;13.60;53.10
55777;DHT22;54079;44.540;18.784;2023-03-14T04:19:07;13.60;53.20
55777;DHT22;54079;44.540;18.784;2023-03-14T04:21:33;13.70;52.80
55777;DHT22;54079;44.540;18.784;2023-03-14T04:23:59;13.60;52.90
55777;DHT22;54079;44.540;18.784;2023-03-14T04:26:25;13.60;54.30
55777;DHT22;54079;44.540;18.784;2023-03-14T04:28:50;13.60;53.70
55777;DHT22;54079;44.540;18.784;2023-03-14T04:31:21;13.60;52.80
55777;DHT22;54079;44.540;18.784;2023-03-14T04:33:47;13.60;54.60
55777;DHT22;54079;44.540;18.784;2023-03-14T04:36:13;13.50;53.50
55777;DHT22;54079;44.540;18.784;2023-03-14T04:38:39;13.50;53.10
55777;DHT22;54079;44.540;18.784;2023-03-14T04:41:06;13.50;53.40
55777;DHT22;54079;44.540;18.784;2023-03-14T04:43:32;13.50;52.90
55777;DHT22;54079;44.540;18.784;2023-03-14T04:45:58;13.50;53.80
55777;DHT22;54079;44.540;18.784;2023-03-14T04:48:25;13.60;54.20
55777;DHT22;54079;44.540;18.784;2023-03-14T04:50:51;13.50;54.20
55777;DHT22;54079;44.540;18.784;2023-03-14T04:53:18;13.40;52.90
55777;DHT22;54079;44.540;18.784;2023-03-14T04:55:54;13.40;53.20
55777;DHT22;54079;44.540;18.784;2023-03-14T04:58:21;13.40;54.60
55777;DHT22;54079;44.540;18.784;2023-03-14T05:00:47;13.40;53.40
55777;DHT22;54079;44.540;18.784;2023-03-14T05:03:17;13.50;53.20
55777;DHT22;54079;44.540;18.784;2023-03-14T05:05:44;13.40;53.30
55777;DHT22;54079;44.540;18.784;2023-03-14T05:08:10;13.40;53.40
55777;DHT22;54079;44.540;18.784;2023-03-14T05:10:36;13.40;53.80
55777;DHT22;54079;44.540;18.784;2023-03-14T05:13:03;13.40;53.20
55777;DHT22;54079;44.540;18.784;2023-03-14T05:15:29;13.40;53.00
55777;DHT22;54079;44.540;18.784;2023-03-14T05:17:55;13.40;53.50
55777;DHT22;54079;44.540;18.784;2023-03-14T05:20:21;13.40;52.90
55777;DHT22;54079;44.540;18.784;2023-03-14T05:22:47;13.40;53.20
55777;DHT22;54079;44.540;18.784;2023-03-14T05:25:13;13.60;52.90
55777;DHT22;54079;44.540;18.784;2023-03-14T05:27:39;13.70;52.80
55777;DHT22;54079;44.540;18.784;2023-03-14T05:30:06;13.80;52.40
55777;DHT22;54079;44.540;18.784;2023-03-14T05:32:32;13.90;53.80
55777;DHT22;54079;44.540;18.784;2023-03-14T05:34:58;14.00;53.80
55777;DHT22;54079;44.540;18.784;2023-03-14T05:37:28;14.00;54.20
55777;DHT22;54079;44.540;18.784;2023-03-14T05:39:54;14.00;52.80
55777;DHT22;54079;44.540;18.784;2023-03-14T05:42:20;14.10;53.40
55777;DHT22;54079;44.540;18.784;2023-03-14T05:44:46;14.20;53.70
55777;DHT22;54079;44.540;18.784;2023-03-14T05:47:12;14.30;52.50
55777;DHT22;54079;44.540;18.784;2023-03-14T05:49:38;14.40;53.50
55777;DHT22;54079;44.540;18.784;2023-03-14T05:52:03;14.40;52.60
55777;DHT22;54079;44.540;18.784;2023-03-14T05:54:30;14.50;52.50
55777;DHT22;54079;44.540;18.784;2023-03-14T05:56:56;14.50;51.30
55777;DHT22;54079;44.540;18.784;2023-03-14T05:59:21;14.50;51.70
55777;DHT22;54079;44.540;18.784;2023-03-14T06:01:47;14.60;51.50
55777;DHT22;54079;44.540;18.784;2023-03-14T06:04:13;14.80;52.30
55777;DHT22;54079;44.540;18.784;2023-03-14T06:06:39;14.80;54.50
55777;DHT22;54079;44.540;18.784;2023-03-14T06:09:05;14.70;53.50
55777;DHT22;54079;44.540;18.784;2023-03-14T06:11:31;14.70;53.20
55777;DHT22;54079;44.540;18.784;2023-03-14T06:13:57;14.90;52.40
55777;DHT22;54079;44.540;18.784;2023-03-14T06:16:23;15.10;51.80
55777;DHT22;54079;44.540;18.784;2023-03-14T06:18:49;15.30;51.40
55777;DHT22;54079;44.540;18.784;2023-03-14T06:21:15;15.40;51.60
55777;DHT22;54079;44.540;18.784;2023-03-14T06:23:41;15.40;50.70
55777;DHT22;54079;44.540;18.784;2023-03-14T06:26:07;15.60;50.40
55777;DHT22;54079;44.540;18.784;2023-03-14T06:28:33;15.70;49.40
55777;DHT22;54079;44.540;18.784;2023-03-14T06:31:00;15.70;51.00
55777;DHT22;54079;44.540;18.784;2023-03-14T06:33:26;15.80;51.40
55777;DHT22;54079;44.540;18.784;2023-03-14T06:35:52;16.00;50.00
55777;DHT22;54079;44.540;18.784;2023-03-14T06:38:18;16.20;49.80
55777;DHT22;54079;44.540;18.784;2023-03-14T06:40:44;16.30;50.10
55777;DHT22;54079;44.540;18.784;2023-03-14T06:43:10;16.40;49.60
55777;DHT22;54079;44.540;18.784;2023-03-14T06:45:36;16.60;51.30
55777;DHT22;54079;44.540;18.784;2023-03-14T06:48:02;16.80;50.10
55777;DHT22;54079;44.540;18.784;2023-03-14T06:50:28;17.00;50.50
55777;DHT22;54079;44.540;18.784;2023-03-14T06:52:54;17.10;51.60
55777;DHT22;54079;44.540;18.784;2023-03-14T06:55:20;17.40;50.40
55777;DHT22;54079;44.540;18.784;2023-03-14T06:57:46;17.60;51.20
55777;DHT22;54079;44.540;18.784;2023-03-14T07:00:13;17.70;49.60
55777;DHT22;54079;44.540;18.784;2023-03-14T07:02:39;18.00;49.40
55777;DHT22;54079;44.540;18.784;2023-03-14T07:05:06;18.10;47.70
55777;DHT22;54079;44.540;18.784;2023-03-14T07:07:32;18.10;48.50
55777;DHT22;54079;44.540;18.784;2023-03-14T07:09:58;18.20;48.80
55777;DHT22;54079;44.540;18.784;2023-03-14T07:12:24;18.30;48.90
55777;DHT22;54079;44.540;18.784;2023-03-14T07:14:50;18.40;48.80
55777;DHT22;54079;44.540;18.784;2023-03-14T07:17:15;18.50;48.40
55777;DHT22;54079;44.540;18.784;2023-03-14T07:19:41;18.60;48.70
55777;DHT22;54079;44.540;18.784;2023-03-14T07:22:07;18.60;47.10
55777;DHT22;54079;44.540;18.784;2023-03-14T07:24:33;18.80;48.30
55777;DHT22;54079;44.540;18.784;2023-03-14T07:26:59;19.00;47.20
55777;DHT22;54079;44.540;18.784;2023-03-14T07:29:25;19.00;47.10
55777;DHT22;54079;44.540;18.784;2023-03-14T07:31:51;19.30;47.50
55777;DHT22;54079;44.540;18.784;2023-03-14T07:34:17;19.60;46.90
55777;DHT22;54079;44.540;18.784;2023-03-14T07:36:43;20.10;47.20
55777;DHT22;54079;44.540;18.784;2023-03-14T07:39:08;20.70;46.30
55777;DHT22;54079;44.540;18.784;2023-03-14T07:41:34;20.90;44.50
55777;DHT22;54079;44.540;18.784;2023-03-14T07:44:00;21.00;45.50
55777;DHT22;54079;44.540;18.784;2023-03-14T07:46:26;21.40;45.00
55777;DHT22;54079;44.540;18.784;2023-03-14T07:48:52;21.70;44.70
55777;DHT22;54079;44.540;18.784;2023-03-14T07:51:18;22.10;44.10
55777;DHT22;54079;44.540;18.784;2023-03-14T07:53:44;22.70;42.50
55777;DHT22;54079;44.540;18.784;2023-03-14T07:56:11;22.90;44.10
55777;DHT22;54079;44.540;18.784;2023-03-14T07:58:37;23.10;44.10
55777;DHT22;54079;44.540;18.784;2023-03-14T08:01:03;23.10;43.70
55777;DHT22;54079;44.540;18.784;2023-03-14T08:03:29;23.30;43.60
55777;DHT22;54079;44.540;18.784;2023-03-14T08:05:55;23.50;43.10
55777;DHT22;54079;44.540;18.784;2023-03-14T08:08:21;23.40;41.90
55777;DHT22;54079;44.540;18.784;2023-03-14T08:10:47;23.20;43.00
55777;DHT22;54079;44.540;18.784;2023-03-14T08:13:13;22.80;42.80
55777;DHT22;54079;44.540;18.784;2023-03-14T08:15:39;22.80;42.70
55777;DHT22;54079;44.540;18.784;2023-03-14T08:18:05;23.40;42.80
55777;DHT22;54079;44.540;18.784;2023-03-14T08:20:31;23.40;42.90
55777;DHT22;54079;44.540;18.784;2023-03-14T08:22:59;24.00;42.80
55777;DHT22;54079;44.540;18.784;2023-03-14T08:25:26;24.60;41.90
55777;DHT22;54079;44.540;18.784;2023-03-14T08:27:53;25.10;42.30
55777;DHT22;54079;44.540;18.784;2023-03-14T08:30:19;25.70;42.00
55777;DHT22;54079;44.540;18.784;2023-03-14T08:32:46;26.60;42.10
55777;DHT22;54079;44.540;18.784;2023-03-14T08:35:12;27.40;39.10
55777;DHT22;54079;44.540;18.784;2023-03-14T08:37:38;27.90;40.70
55777;DHT22;54079;44.540;18.784;2023-03-14T08:40:05;28.00;40.00
55777;DHT22;54079;44.540;18.784;2023-03-14T08:42:33;29.50;40.40
55777;DHT22;54079;44.540;18.784;2023-03-14T08:44:59;29.70;38.90
55777;DHT22;54079;44.540;18.784;2023-03-14T08:47:25;29.60;39.40
55777;DHT22;54079;44.540;18.784;2023-03-14T08:49:51;29.80;39.70
55777;DHT22;54079;44.540;18.784;2023-03-14T08:52:17;29.70;39.70
55777;DHT22;54079;44.540;18.784;2023-03-14T08:54:43;29.60;39.50
55777;DHT22;54079;44.540;18.784;2023-03-14T08:57:10;28.60;37.70
55777;DHT22;54079;44.540;18.784;2023-03-14T08:59:36;28.00;40.40
55777;DHT22;54079;44.540;18.784;2023-03-14T09:02:02;26.90;39.10
55777;DHT22;54079;44.540;18.784;2023-03-14T09:04:32;27.00;40.80
55777;DHT22;54079;44.540;18.784;2023-03-14T09:06:59;26.20;40.10
55777;DHT22;54079;44.540;18.784;2023-03-14T09:09:25;26.30;42.10
55777;DHT22;54079;44.540;18.784;2023-03-14T09:11:54;25.90;42.70
55777;DHT22;54079;44.540;18.784;2023-03-14T09:14:20;25.70;41.10
55777;DHT22;54079;44.540;18.784;2023-03-14T09:16:46;25.00;41.30
55777;DHT22;54079;44.540;18.784;2023-03-14T09:19:12;24.40;40.90
55777;DHT22;54079;44.540;18.784;2023-03-14T09:21:38;24.40;42.80
55777;DHT22;54079;44.540;18.784;2023-03-14T09:24:05;24.20;42.90
55777;DHT22;54079;44.540;18.784;2023-03-14T09:26:31;23.20;42.40
55777;DHT22;54079;44.540;18.784;2023-03-14T09:28:57;22.80;43.20
55777;DHT22;54079;44.540;18.784;2023-03-14T09:31:23;22.60;43.60
55777;DHT22;54079;44.540;18.784;2023-03-14T09:33:49;22.30;43.40
55777;DHT22;54079;44.540;18.784;2023-03-14T09:36:15;22.30;44.40
55777;DHT22;54079;44.540;18.784;2023-03-14T09:38:41;22.60;44.80
55777;DHT22;54079;44.540;18.784;2023-03-14T09:41:31;22.90;44.60
55777;DHT22;54079;44.540;18.784;2023-03-14T09:44:27;22.80;43.80
55777;DHT22;54079;44.540;18.784;2023-03-14T09:46:53;23.00;45.60
55777;DHT22;54079;44.540;18.784;2023-03-14T09:49:34;23.00;45.70
55777;DHT22;54079;44.540;18.784;2023-03-14T09:52:05;23.10;44.70
55777;DHT22;54079;44.540;18.784;2023-03-14T09:54:44;23.20;43.90
55777;DHT22;54079;44.540;18.784;2023-03-14T09:57:17;23.00;43.70
55777;DHT22;54079;44.540;18.784;2023-03-14T09:59:45;22.80;43.60
55777;DHT22;54079;44.540;18.784;2023-03-14T10:02:17;23.10;44.70
55777;DHT22;54079;44.540;18.784;2023-03-14T10:04:45;23.30;45.00
55777;DHT22;54079;44.540;18.784;2023-03-14T10:07:27;23.60;44.80
55777;DHT22;54079;44.540;18.784;2023-03-14T10:09:53;23.80;45.00
55777;DHT22;54079;44.540;18.784;2023-03-14T10:12:19;23.60;42.70
55777;DHT22;54079;44.540;18.784;2023-03-14T10:14:49;23.90;43.80
55777;DHT22;54079;44.540;18.784;2023-03-14T10:17:18;24.10;44.10
55777;DHT22;54079;44.540;18.784;2023-03-14T10:19:58;24.20;43.80
55777;DHT22;54079;44.540;18.784;2023-03-14T10:22:28;24.20;45.00
55777;DHT22;54079;44.540;18.784;2023-03-14T10:24:57;24.10;43.10
55777;DHT22;54079;44.540;18.784;2023-03-14T10:27:32;23.90;42.00
55777;DHT22;54079;44.540;18.784;2023-03-14T10:30:01;23.80;44.50
55777;DHT22;54079;44.540;18.784;2023-03-14T10:32:35;23.90;44.00
55777;DHT22;54079;44.540;18.784;2023-03-14T10:37:57;23.90;43.30
55777;DHT22;54079;44.540;18.784;2023-03-14T10:40:28;23.60;43.60
55777;DHT22;54079;44.540;18.784;2023-03-14T10:42:57;23.70;44.70
55777;DHT22;54079;44.540;18.784;2023-03-14T10:45:32;23.70;44.40
55777;DHT22;54079;44.540;18.784;2023-03-14T10:48:23;23.80;44.20
55777;DHT22;54079;44.540;18.784;2023-03-14T10:53:19;24.00;44.90
55777;DHT22;54079;44.540;18.784;2023-03-14T10:55:46;24.20;44.60
55777;DHT22;54079;44.540;18.784;2023-03-14T10:58:26;24.30;42.20
55777;DHT22;54079;44.540;18.784;2023-03-14T11:07:02;24.50;44.00
55777;DHT22;54079;44.540;18.784;2023-03-14T11:18:33;24.40;42.90
55777;DHT22;54079;44.540;18.784;2023-03-14T11:24:04;24.50;42.70
55777;DHT22;54079;44.540;18.784;2023-03-14T11:26:51;24.10;43.10
55777;DHT22;54079;44.540;18.784;2023-03-14T11:31:56;23.60;43.40
55777;DHT22;54079;44.540;18.784;2023-03-14T11:34:28;23.80;43.80
55777;DHT22;54079;44.540;18.784;2023-03-14T11:42:28;24.70;44.00
55777;DHT22;54079;44.540;18.784;2023-03-14T11:44:55;24.60;42.20
55777;DHT22;54079;44.540;18.784;2023-03-14T11:47:29;24.30;42.10
55777;DHT22;54079;44.540;18.784;2023-03-14T11:50:15;24.10;42.60
55777;DHT22;54079;44.540;18.784;2023-03-14T11:53:08;23.90;42.80
55777;DHT22;54079;44.540;18.784;2023-03-14T11:55:36;23.90;44.30
55777;DHT22;54079;44.540;18.784;2023-03-14T11:58:16;23.90;44.20
55777;DHT22;54079;44.540;18.784;2023-03-14T12:00:45;23.80;44.90
55777;DHT22;54079;44.540;18.784;2023-03-14T12:03:34;23.90;43.40
55777;DHT22;54079;44.540;18.784;2023-03-14T12:08:56;24.00;44.90
55777;DHT22;54079;44.540;18.784;2023-03-14T12:13:59;23.50;41.40
55777;DHT22;54079;44.540;18.784;2023-03-14T12:18:52;23.40;44.60
55777;DHT22;54079;44.540;18.784;2023-03-14T12:21:19;23.30;43.00
55777;DHT22;54079;44.540;18.784;2023-03-14T12:23:56;23.50;44.00
55777;DHT22;54079;44.540;18.784;2023-03-14T12:26:25;23.60;45.20
55777;DHT22;54079;44.540;18.784;2023-03-14T12:29:38;23.40;43.50
55777;DHT22;54079;44.540;18.784;2023-03-14T12:31:43;23.10;42.60
55777;DHT22;54079;44.540;18.784;2023-03-14T12:42:22;23.10;42.60
55777;DHT22;54079;44.540;18.784;2023-03-14T12:45:29;23.00;44.60
55777;DHT22;54079;44.540;18.784;2023-03-14T12:48:19;22.70;43.80
55777;DHT22;54079;44.540;18.784;2023-03-14T12:51:03;22.80;43.10
55777;DHT22;54079;44.540;18.784;2023-03-14T12:56:44;22.80;42.50
55777;DHT22;54079;44.540;18.784;2023-03-14T13:05:05;22.60;42.80
55777;DHT22;54079;44.540;18.784;2023-03-14T13:12:44;22.50;43.00
55777;DHT22;54079;44.540;18.784;2023-03-14T13:15:17;22.50;44.40
55777;DHT22;54079;44.540;18.784;2023-03-14T13:17:45;22.40;42.80
55777;DHT22;54079;44.540;18.784;2023-03-14T13:20:22;22.40;42.80
55777;DHT22;54079;44.540;18.784;2023-03-14T13:22:49;22.40;43.80
55777;DHT22;54079;44.540;18.784;2023-03-14T13:25:16;22.50;43.50
55777;DHT22;54079;44.540;18.784;2023-03-14T13:27:44;22.40;43.10
55777;DHT22;54079;44.540;18.784;2023-03-14T13:30:23;22.50;43.30
55777;DHT22;54079;44.540;18.784;2023-03-14T13:32:50;22.30;41.60
55777;DHT22;54079;44.540;18.784;2023-03-14T13:35:28;22.30;43.40
55777;DHT22;54079;44.540;18.784;2023-03-14T13:38:00;22.40;44.30
55777;DHT22;54079;44.540;18.784;2023-03-14T13:40:34;22.40;43.00
55777;DHT22;54079;44.540;18.784;2023-03-14T13:45:52;22.40;41.50
55777;DHT22;54079;44.540;18.784;2023-03-14T13:48:20;22.50;43.90
55777;DHT22;54079;44.540;18.784;2023-03-14T13:50:51;22.50;43.10
55777;DHT22;54079;44.540;18.784;2023-03-14T13:53:17;22.50;43.50
55777;DHT22;54079;44.540;18.784;2023-03-14T13:55:43;22.40;42.30
55777;DHT22;54079;44.540;18.784;2023-03-14T13:58:35;22.50;42.70
55777;DHT22;54079;44.540;18.784;2023-03-14T14:01:06;22.40;42.20
55777;DHT22;54079;44.540;18.784;2023-03-14T14:03:38;22.40;43.10
55777;DHT22;54079;44.540;18.784;2023-03-14T14:06:10;22.30;42.80
55777;DHT22;54079;44.540;18.784;2023-03-14T14:08:40;22.30;43.80
55777;DHT22;54079;44.540;18.784;2023-03-14T14:11:06;22.50;43.50
55777;DHT22;54079;44.540;18.784;2023-03-14T14:13:35;22.30;42.00
55777;DHT22;54079;44.540;18.784;2023-03-14T14:16:02;22.30;42.50
55777;DHT22;54079;44.540;18.784;2023-03-14T14:18:30;22.30;42.10
55777;DHT22;54079;44.540;18.784;2023-03-14T14:20:56;22.40;41.90
55777;DHT22;54079;44.540;18.784;2023-03-14T14:23:25;22.30;42.00
55777;DHT22;54079;44.540;18.784;2023-03-14T14:25:55;22.30;41.20
55777;DHT22;54079;44.540;18.784;2023-03-14T14:28:26;22.30;42.40
55777;DHT22;54079;44.540;18.784;2023-03-14T14:33:45;22.20;41.10
55777;DHT22;54079;44.540;18.784;2023-03-14T14:36:18;22.10;43.30
55777;DHT22;54079;44.540;18.784;2023-03-14T14:38:58;22.10;43.00
55777;DHT22;54079;44.540;18.784;2023-03-14T14:41:33;22.00;43.70
55777;DHT22;54079;44.540;18.784;2023-03-14T14:44:03;22.00;43.00
55777;DHT22;54079;44.540;18.784;2023-03-14T14:46:32;22.00;43.50
55777;DHT22;54079;44.540;18.784;2023-03-14T14:49:04;22.00;43.70
55777;DHT22;54079;44.540;18.784;2023-03-14T14:51:34;22.00;43.60
55777;DHT22;54079;44.540;18.784;2023-03-14T14:54:12;22.10;42.20
55777;DHT22;54079;44.540;18.784;2023-03-14T14:56:38;22.10;42.90
55777;DHT22;54079;44.540;18.784;2023-03-14T14:59:06;22.10;42.20
55777;DHT22;54079;44.540;18.784;2023-03-14T15:01:37;22.00;43.20
55777;DHT22;54079;44.540;18.784;2023-03-14T15:04:14;21.90;43.30
55777;DHT22;54079;44.540;18.784;2023-03-14T15:06:46;21.70;43.70
55777;DHT22;54079;44.540;18.784;2023-03-14T15:09:13;21.50;43.40
55777;DHT22;54079;44.540;18.784;2023-03-14T15:11:39;21.30;43.20
55777;DHT22;54079;44.540;18.784;2023-03-14T15:14:05;21.20;43.70
55777;DHT22;54079;44.540;18.784;2023-03-14T15:16:32;21.10;42.80
55777;DHT22;54079;44.540;18.784;2023-03-14T15:19:01;20.90;44.10
55777;DHT22;54079;44.540;18.784;2023-03-14T15:21:28;20.80;45.60
55777;DHT22;54079;44.540;18.784;2023-03-14T15:23:54;20.70;44.10
55777;DHT22;54079;44.540;18.784;2023-03-14T15:26:22;20.70;44.10
55777;DHT22;54079;44.540;18.784;2023-03-14T15:28:49;20.60;44.00
55777;DHT22;54079;44.540;18.784;2023-03-14T15:31:17;20.70;44.60
55777;DHT22;54079;44.540;18.784;2023-03-14T15:33:44;20.70;44.30
55777;DHT22;54079;44.540;18.784;2023-03-14T15:36:25;20.80;45.00
55777;DHT22;54079;44.540;18.784;2023-03-14T15:38:53;20.80;44.60
55777;DHT22;54079;44.540;18.784;2023-03-14T15:41:19;20.90;44.20
55777;DHT22;54079;44.540;18.784;2023-03-14T15:43:45;20.90;44.80
55777;DHT22;54079;44.540;18.784;2023-03-14T15:46:12;20.90;44.90
55777;DHT22;54079;44.540;18.784;2023-03-14T15:48:38;20.90;44.40
55777;DHT22;54079;44.540;18.784;2023-03-14T15:51:04;20.80;43.90
55777;DHT22;54079;44.540;18.784;2023-03-14T15:53:30;20.70;43.60
55777;DHT22;54079;44.540;18.784;2023-03-14T15:55:56;20.60;43.80
55777;DHT22;54079;44.540;18.784;2023-03-14T15:58:22;20.50;43.60
55777;DHT22;54079;44.540;18.784;2023-03-14T16:00:49;20.40;43.70
55777;DHT22;54079;44.540;18.784;2023-03-14T16:03:15;20.20;43.40
55777;DHT22;54079;44.540;18.784;2023-03-14T16:05:41;20.10;44.80
55777;DHT22;54079;44.540;18.784;2023-03-14T16:08:07;20.00;43.20
55777;DHT22;54079;44.540;18.784;2023-03-14T16:10:33;19.90;45.00
55777;DHT22;54079;44.540;18.784;2023-03-14T16:13:00;19.90;43.30
55777;DHT22;54079;44.540;18.784;2023-03-14T16:15:26;19.70;44.60
55777;DHT22;54079;44.540;18.784;2023-03-14T16:17:55;19.70;44.70
55777;DHT22;54079;44.540;18.784;2023-03-14T16:20:22;19.60;44.30
55777;DHT22;54079;44.540;18.784;2023-03-14T16:22:48;19.50;44.10
55777;DHT22;54079;44.540;18.784;2023-03-14T16:25:15;19.40;44.60
55777;DHT22;54079;44.540;18.784;2023-03-14T16:27:41;19.40;45.60
55777;DHT22;54079;44.540;18.784;2023-03-14T16:30:10;19.40;44.90
55777;DHT22;54079;44.540;18.784;2023-03-14T16:32:36;19.30;45.20
55777;DHT22;54079;44.540;18.784;2023-03-14T16:35:02;19.20;46.10
55777;DHT22;54079;44.540;18.784;2023-03-14T16:37:28;19.10;45.40